Time;durP1;ratioP1;P1;durP2;ratioP2;P2;SDS_P1;SDS_P2;PMS_P1;PMS_P2;Temp;Humidity;BMP_temperature;BMP_pressure;BME280_temperature;BME280_humidity;BME280_pressure;Samples;Min_cycle;Max_cycle;Signal;HPM_P1;HPM_P2
2021/03/23 00:01:49;;;;;;;19.50;13.43;;;;;;;5.93;100.00;102635.91;1911347;75;26202;-81
2021/03/23 00:04:19;;;;;;;16.43;13.27;;;;;;;5.94;100.00;102628.48;1870705;76;26673;-81
2021/03/23 00:06:49;;;;;;;17.10;12.83;;;;;;;5.92;100.00;102631.45;1913194;73;26688;-81
2021/03/23 00:09:19;;;;;;;22.57;13.43;;;;;;;5.91;100.00;102632.50;1870577;77;26640;-80
2021/03/23 00:11:48;;;;;;;20.60;14.23;;;;;;;6.02;100.00;102627.42;1870575;77;26292;-81
2021/03/23 00:14:18;;;;;;;17.13;12.83;;;;;;;6.08;100.00;102626.55;1913007;75;26730;-80
2021/03/23 00:16:49;;;;;;;18.30;13.37;;;;;;;5.94;100.00;102632.63;1870531;77;26178;-81
2021/03/23 00:19:19;;;;;;;18.33;12.23;;;;;;;6.02;100.00;102635.17;1870509;77;26186;-84
2021/03/23 00:21:49;;;;;;;18.33;12.03;;;;;;;5.93;100.00;102628.16;1912984;75;26202;-82
2021/03/23 00:24:19;;;;;;;15.50;12.87;;;;;;;5.80;100.00;102627.59;1870615;77;26256;-83
2021/03/23 00:26:48;;;;;;;16.97;12.03;;;;;;;5.69;100.00;102628.74;1870549;77;26195;-83
2021/03/23 00:29:18;;;;;;;15.53;12.47;;;;;;;5.67;100.00;102634.45;1913144;75;26189;-81
2021/03/23 00:31:48;;;;;;;19.37;12.60;;;;;;;5.63;100.00;102636.45;1870526;77;26276;-83
2021/03/23 00:34:18;;;;;;;15.80;10.87;;;;;;;5.50;100.00;102642.27;1870491;77;26222;-82
2021/03/23 00:36:48;;;;;;;18.30;12.37;;;;;;;5.39;100.00;102633.20;1913067;75;26283;-83
2021/03/23 00:39:18;;;;;;;17.23;12.00;;;;;;;5.56;100.00;102635.08;1870499;77;26219;-81
2021/03/23 00:41:47;;;;;;;16.03;12.90;;;;;;;5.66;100.00;102629.99;1870651;77;26199;-81
2021/03/23 00:44:17;;;;;;;17.37;11.80;;;;;;;5.66;100.00;102634.66;1913173;75;26288;-81
2021/03/23 00:46:48;;;;;;;14.17;10.47;;;;;;;5.66;100.00;102638.79;1870534;77;26268;-81
2021/03/23 00:49:18;;;;;;;13.33;9.60;;;;;;;5.58;100.00;102643.98;1870593;77;26204;-81
2021/03/23 00:51:47;;;;;;;14.43;9.03;;;;;;;5.83;100.00;102638.71;1870498;77;26205;-81
2021/03/23 00:54:17;;;;;;;13.17;10.50;;;;;;;5.63;100.00;102637.84;1912964;75;26189;-81
2021/03/23 00:56:47;;;;;;;13.77;10.57;;;;;;;5.56;100.00;102643.87;1870635;77;26261;-81
2021/03/23 00:59:17;;;;;;;16.83;10.73;;;;;;;5.26;100.00;102635.09;1870482;77;26642;-80
2021/03/23 01:01:47;;;;;;;15.43;10.60;;;;;;;5.20;100.00;102637.28;1912994;75;26629;-80
2021/03/23 01:04:16;;;;;;;11.50;7.70;;;;;;;5.15;100.00;102632.39;1870586;77;26272;-80
2021/03/23 01:06:46;;;;;;;6.60;4.57;;;;;;;5.07;100.00;102636.70;1912895;74;26366;-80
2021/03/23 01:09:19;;;;;;;5.20;4.63;;;;;;;4.86;100.00;102629.94;1870461;73;26312;-80
2021/03/23 01:11:52;;;;;;;8.17;5.10;;;;;;;4.66;100.00;102633.11;1870616;76;26202;-80
2021/03/23 01:14:23;;;;;;;7.90;5.73;;;;;;;4.93;100.00;102634.41;1870407;77;26225;-79
2021/03/23 01:16:53;;;;;;;7.30;5.70;;;;;;;5.03;100.00;102629.91;1837768;78;26302;-79
2021/03/23 01:19:23;;;;;;;10.30;8.67;;;;;;;4.77;100.00;102633.38;1837862;78;26220;-79
2021/03/23 01:21:52;;;;;;;12.60;10.53;;;;;;;4.68;100.00;102628.23;1837791;78;26283;-79
2021/03/23 01:24:22;;;;;;;19.53;12.03;;;;;;;4.69;100.00;102624.44;1913084;75;26194;-79
2021/03/23 01:26:53;;;;;;;13.10;9.80;;;;;;;4.91;100.00;102625.52;1870522;77;26666;-79
2021/03/23 01:29:23;;;;;;;18.63;11.13;;;;;;;4.85;100.00;102625.47;1870491;77;26208;-79
2021/03/23 01:31:53;;;;;;;14.87;11.17;;;;;;;4.89;100.00;102624.01;1913016;75;26205;-80
2021/03/23 01:34:22;;;;;;;16.03;11.57;;;;;;;4.96;100.00;102617.47;1870540;77;26218;-80
2021/03/23 01:36:52;;;;;;;16.43;11.83;;;;;;;5.06;100.00;102623.98;1870515;77;26296;-80
2021/03/23 01:39:23;;;;;;;16.40;12.00;;;;;;;5.05;100.00;102627.26;1912964;75;26629;-80
2021/03/23 01:41:52;;;;;;;17.47;12.33;;;;;;;5.00;100.00;102611.91;1870456;77;26186;-80
2021/03/23 01:44:22;;;;;;;10.93;9.13;;;;;;;4.96;100.00;102616.09;1870431;77;26727;-80
2021/03/23 01:46:53;;;;;;;14.17;9.90;;;;;;;4.90;100.00;102611.95;1870362;77;26331;-81
2021/03/23 01:49:26;;;;;;;14.57;9.77;;;;;;;4.85;100.00;102611.70;1912989;75;26183;-81
2021/03/23 01:51:58;;;;;;;14.53;9.93;;;;;;;4.79;100.00;102612.54;1870526;76;26725;-80
2021/03/23 01:54:31;;;;;;;14.23;10.80;;;;;;;4.83;100.00;102612.45;1837837;78;26675;-81
2021/03/23 01:57:04;;;;;;;16.70;11.57;;;;;;;4.81;100.00;102614.55;1913021;75;26189;-81
2021/03/23 01:59:37;;;;;;;14.93;11.07;;;;;;;4.88;100.00;102606.63;1870496;77;26235;-81
2021/03/23 02:02:07;;;;;;;16.60;11.90;;;;;;;4.80;100.00;102611.47;1912865;75;26217;-81
2021/03/23 02:04:37;;;;;;;16.90;12.73;;;;;;;4.62;100.00;102607.87;1870408;77;26216;-81
2021/03/23 02:07:08;;;;;;;17.03;11.80;;;;;;;4.66;100.00;102602.83;1870449;75;26202;-80
2021/03/23 02:09:39;;;;;;;16.13;12.00;;;;;;;4.51;100.00;102605.17;1912879;72;26681;-81
2021/03/23 02:12:13;;;;;;;19.90;13.63;;;;;;;4.63;100.00;102610.09;1870420;77;26194;-81
2021/03/23 02:14:45;;;;;;;19.90;12.67;;;;;;;4.74;100.00;102607.64;1870466;77;26270;-82
2021/03/23 02:17:21;;;;;;;17.73;13.30;;;;;;;4.75;100.00;102607.13;1912830;75;26190;-81
2021/03/23 02:19:55;;;;;;;18.30;13.37;;;;;;;4.67;100.00;102604.52;1870447;77;26231;-81
2021/03/23 02:22:28;;;;;;;20.73;14.23;;;;;;;4.76;100.00;102597.78;1870491;77;26613;-81
2021/03/23 02:24:58;;;;;;;20.87;13.80;;;;;;;4.73;100.00;102592.70;1912946;75;26197;-81
2021/03/23 02:27:29;;;;;;;22.93;14.03;;;;;;;4.68;100.00;102588.33;1870502;77;26194;-81
2021/03/23 02:30:01;;;;;;;19.77;13.77;;;;;;;4.73;100.00;102588.05;1870381;77;26207;-82
2021/03/23 02:32:31;;;;;;;17.70;12.80;;;;;;;4.78;100.00;102583.30;1912934;75;26186;-82
2021/03/23 02:35:01;;;;;;;23.77;14.63;;;;;;;4.75;100.00;102590.61;1870501;77;26349;-81
2021/03/23 02:37:30;;;;;;;20.83;13.83;;;;;;;4.77;100.00;102589.33;1870416;77;26182;-81
2021/03/23 02:40:00;;;;;;;17.67;13.73;;;;;;;4.77;100.00;102588.48;1913014;75;26190;-80
2021/03/23 02:42:30;;;;;;;18.80;13.37;;;;;;;4.78;100.00;102588.81;1870586;77;26182;-81
2021/03/23 02:45:00;;;;;;;20.37;14.13;;;;;;;4.62;100.00;102583.66;1870450;77;26279;-81
2021/03/23 02:47:30;;;;;;;18.93;14.37;;;;;;;4.66;100.00;102591.30;1913117;75;26197;-82
2021/03/23 02:50:00;;;;;;;20.37;13.67;;;;;;;4.59;100.00;102587.12;1870493;77;26252;-82
2021/03/23 02:52:30;;;;;;;18.43;13.40;;;;;;;4.61;100.00;102573.69;1870442;77;26210;-81
2021/03/23 02:55:00;;;;;;;21.70;14.67;;;;;;;4.58;100.00;102588.69;1912977;75;26369;-81
2021/03/23 02:57:30;;;;;;;23.57;14.47;;;;;;;4.48;100.00;102586.33;1870563;77;26259;-81
2021/03/23 03:00:00;;;;;;;18.53;14.30;;;;;;;4.64;100.00;102589.79;1870533;77;26687;-81
2021/03/23 03:02:29;;;;;;;19.07;14.23;;;;;;;4.75;100.00;102575.47;1912893;75;26329;-81
2021/03/23 03:04:59;;;;;;;19.37;13.67;;;;;;;4.79;100.00;102580.33;1870564;77;26194;-80
2021/03/23 03:07:29;;;;;;;17.77;13.60;;;;;;;4.85;100.00;102581.42;1870478;77;26183;-81
2021/03/23 03:09:59;;;;;;;20.23;14.07;;;;;;;5.07;100.00;102580.24;1912812;72;26241;-81
2021/03/23 03:12:29;;;;;;;20.03;14.50;;;;;;;4.98;100.00;102577.34;1870485;77;26179;-81
2021/03/23 03:15:00;;;;;;;20.67;14.57;;;;;;;4.93;100.00;102577.96;1870445;77;26747;-80
2021/03/23 03:17:30;;;;;;;22.67;14.90;;;;;;;4.89;100.00;102575.30;1912884;75;26178;-80
2021/03/23 03:20:00;;;;;;;19.43;14.23;;;;;;;5.01;100.00;102576.92;1870465;77;26220;-80
2021/03/23 03:22:30;;;;;;;20.87;14.37;;;;;;;5.08;100.00;102574.21;1870353;77;26187;-79
2021/03/23 03:25:00;;;;;;;22.23;16.40;;;;;;;5.09;100.00;102570.41;1913061;75;26190;-79
2021/03/23 03:27:29;;;;;;;25.63;16.83;;;;;;;5.08;100.00;102577.81;1870850;77;26190;-81
2021/03/23 03:29:59;;;;;;;28.40;18.83;;;;;;;5.08;100.00;102572.83;1870692;77;26215;-82
2021/03/23 03:32:46;;;;;;;26.67;17.27;;;;;;;5.28;100.00;102562.70;1856567;77;32923;-81
2021/03/23 03:35:18;;;;;;;26.70;18.03;;;;;;;5.25;100.00;102570.02;1857011;77;26299;-80
2021/03/23 03:37:49;;;;;;;25.70;18.17;;;;;;;5.12;100.00;102571.36;1856955;77;26733;-80
2021/03/23 03:40:23;;;;;;;31.77;17.93;;;;;;;5.05;100.00;102565.81;1856980;77;26175;-80
2021/03/23 03:42:54;;;;;;;26.87;18.33;;;;;;;4.97;100.00;102570.98;1857129;77;26178;-80
2021/03/23 03:45:25;;;;;;;29.10;17.50;;;;;;;5.02;100.00;102564.33;1856966;77;26179;-79
2021/03/23 03:47:57;;;;;;;28.77;18.97;;;;;;;5.14;100.00;102566.47;1857089;77;26606;-79
2021/03/23 03:50:29;;;;;;;30.13;19.17;;;;;;;5.08;100.00;102565.42;1856952;77;26689;-79
2021/03/23 03:52:59;;;;;;;25.83;17.73;;;;;;;5.07;100.00;102558.73;1856963;77;26190;-79
2021/03/23 03:55:32;;;;;;;27.27;17.73;;;;;;;4.89;100.00;102561.53;1857063;77;26284;-80
2021/03/23 03:58:02;;;;;;;27.70;18.37;;;;;;;4.89;100.00;102557.92;1857053;76;26641;-80
2021/03/23 04:00:33;;;;;;;28.17;18.30;;;;;;;4.97;100.00;102559.97;1856792;77;26627;-81
2021/03/23 04:03:07;;;;;;;24.90;18.60;;;;;;;4.86;100.00;102552.31;1861023;74;26281;-80
2021/03/23 04:05:39;;;;;;;27.47;18.00;;;;;;;4.85;100.00;102558.02;1870900;77;26301;-80
2021/03/23 04:08:11;;;;;;;25.60;17.37;;;;;;;4.84;100.00;102554.41;1913199;75;26602;-80
2021/03/23 04:10:41;;;;;;;34.57;18.90;;;;;;;4.78;100.00;102550.27;1867133;74;26230;-80
2021/03/23 04:13:12;;;;;;;26.27;17.00;;;;;;;4.67;100.00;102549.45;1865321;77;26191;-80
2021/03/23 04:15:44;;;;;;;25.23;17.80;;;;;;;4.61;100.00;102547.55;1865340;77;26670;-80
2021/03/23 04:18:17;;;;;;;27.23;17.90;;;;;;;4.48;100.00;102551.94;1865335;77;26206;-80
2021/03/23 04:20:47;;;;;;;26.80;18.10;;;;;;;4.59;100.00;102544.98;1865430;77;26234;-81
2021/03/23 04:23:24;;;;;;;26.50;18.17;;;;;;;4.56;100.00;102549.01;1865368;77;26413;-80
2021/03/23 04:25:55;;;;;;;26.73;17.57;;;;;;;4.61;100.00;102551.67;1865352;77;26272;-83
2021/03/23 04:28:25;;;;;;;25.67;18.83;;;;;;;4.57;100.00;102545.20;1865363;77;26188;-84
2021/03/23 04:30:55;;;;;;;26.97;18.07;;;;;;;4.54;100.00;102544.22;1865292;77;26257;-83
2021/03/23 04:33:29;;;;;;;29.50;19.07;;;;;;;4.53;100.00;102543.92;1865447;76;26196;-83
2021/03/23 04:36:00;;;;;;;27.93;18.57;;;;;;;4.61;100.00;102548.40;1865215;77;26658;-84
2021/03/23 04:38:33;;;;;;;26.70;18.00;;;;;;;4.40;100.00;102549.88;1865276;77;26212;-83
2021/03/23 04:41:06;;;;;;;31.17;19.37;;;;;;;4.24;100.00;102549.66;1865257;77;26718;-82
2021/03/23 04:43:38;;;;;;;30.93;18.47;;;;;;;4.48;100.00;102543.67;1865272;77;26198;-82
2021/03/23 04:46:08;;;;;;;29.23;18.77;;;;;;;4.48;100.00;102546.43;1865260;77;26336;-82
2021/03/23 04:48:38;;;;;;;28.80;17.40;;;;;;;4.52;100.00;102544.12;1865205;77;26194;-81
2021/03/23 04:51:12;;;;;;;25.83;17.63;;;;;;;4.47;100.00;102546.62;1865307;77;26276;-81
2021/03/23 04:53:44;;;;;;;28.27;19.00;;;;;;;4.47;100.00;102546.10;1865251;77;26237;-83
2021/03/23 04:56:22;;;;;;;30.13;18.87;;;;;;;4.45;100.00;102541.87;1865385;77;26219;-83
2021/03/23 04:58:52;;;;;;;30.70;19.63;;;;;;;4.37;100.00;102546.98;1865287;77;26343;-83
2021/03/23 05:01:22;;;;;;;28.80;18.67;;;;;;;4.29;100.00;102545.78;1853225;76;934705;-83
2021/03/23 05:03:56;;;;;;;30.20;19.73;;;;;;;4.06;100.00;102550.16;1865212;77;26763;-83
2021/03/23 05:06:26;;;;;;;30.60;19.87;;;;;;;4.23;100.00;102548.50;1865370;77;26798;-83
2021/03/23 05:08:56;;;;;;;33.50;19.53;;;;;;;4.44;100.00;102548.41;1825107;79;26190;-83
2021/03/23 05:11:28;;;;;;;29.10;19.07;;;;;;;4.50;100.00;102549.81;1870256;73;26370;-82
2021/03/23 05:13:59;;;;;;;29.47;19.33;;;;;;;4.46;100.00;102540.27;1865365;77;26243;-83
2021/03/23 05:16:29;;;;;;;29.57;18.80;;;;;;;4.39;100.00;102542.14;1865473;77;26191;-81
2021/03/23 05:18:59;;;;;;;28.70;18.50;;;;;;;4.44;100.00;102544.28;1865251;77;26638;-82
2021/03/23 05:21:30;;;;;;;30.70;19.30;;;;;;;4.39;100.00;102539.91;1865207;77;26657;-83
2021/03/23 05:24:02;;;;;;;26.77;18.60;;;;;;;4.31;100.00;102537.33;1865238;77;26194;-82
2021/03/23 05:26:32;;;;;;;27.03;19.00;;;;;;;4.34;100.00;102541.89;1865252;77;26684;-83
2021/03/23 05:29:01;;;;;;;27.77;18.97;;;;;;;4.32;100.00;102541.79;1865268;77;26551;-83
2021/03/23 05:31:33;;;;;;;29.27;18.10;;;;;;;4.28;100.00;102545.44;1865283;77;26184;-83
2021/03/23 05:34:03;;;;;;;31.00;19.37;;;;;;;4.22;100.00;102542.67;1865323;77;26183;-83
2021/03/23 05:36:34;;;;;;;28.47;18.50;;;;;;;4.25;100.00;102546.38;1865302;77;26296;-83
2021/03/23 05:39:06;;;;;;;29.57;19.80;;;;;;;4.31;100.00;102548.34;1865228;77;26220;-83
2021/03/23 05:41:42;;;;;;;29.00;18.17;;;;;;;4.19;100.00;102545.83;1865327;77;26187;-83
2021/03/23 05:44:36;;;;;;;26.13;18.57;;;;;;;4.20;100.00;102540.11;1865438;76;26194;-82
2021/03/23 05:47:08;;;;;;;32.83;18.53;;;;;;;4.18;100.00;102544.13;1857212;77;26307;-81
2021/03/23 05:49:41;;;;;;;29.23;18.20;;;;;;;4.11;100.00;102550.42;1825165;79;26735;-81
2021/03/23 05:52:17;;;;;;;29.27;18.67;;;;;;;4.07;100.00;102550.50;1865150;77;26312;-81
2021/03/23 05:54:54;;;;;;;30.50;18.37;;;;;;;3.98;100.00;102546.75;1865424;76;26280;-82
2021/03/23 05:57:30;;;;;;;28.03;17.73;;;;;;;4.11;100.00;102550.42;1825132;79;26284;-82
2021/03/23 06:00:02;;;;;;;28.37;17.77;;;;;;;4.11;100.00;102553.17;1865290;75;26193;-81
2021/03/23 06:02:45;;;;;;;29.83;19.07;;;;;;;4.07;100.00;102553.77;1825278;79;26234;-82
2021/03/23 06:05:45;;;;;;;28.27;18.23;;;;;;;4.07;100.00;102553.77;1865319;77;26176;-82
2021/03/23 06:08:25;;;;;;;25.10;17.23;;;;;;;3.99;100.00;102553.92;1858231;76;26245;-81
2021/03/23 06:11:20;;;;;;;30.43;17.57;;;;;;;3.98;100.00;102558.57;1865362;74;26227;-82
2021/03/23 06:13:52;;;;;;;27.77;17.70;;;;;;;4.07;100.00;102557.89;1904464;73;26195;-82
2021/03/23 06:16:27;;;;;;;28.00;18.00;;;;;;;4.10;100.00;102557.52;1865412;77;26284;-82
2021/03/23 06:19:00;;;;;;;26.87;17.83;;;;;;;3.95;100.00;102560.88;1834818;78;26215;-82
2021/03/23 06:21:33;;;;;;;26.63;18.20;;;;;;;3.91;100.00;102563.70;1906373;75;26186;-83
2021/03/23 06:24:07;;;;;;;29.87;18.50;;;;;;;3.82;100.00;102553.89;1865479;75;26704;-83
2021/03/23 06:26:43;;;;;;;27.27;18.00;;;;;;;3.81;100.00;102556.34;1907786;75;26316;-83
2021/03/23 06:29:23;;;;;;;27.80;18.37;;;;;;;3.93;100.00;102556.12;1865436;77;26187;-81
2021/03/23 06:32:03;;;;;;;35.20;20.13;;;;;;;4.19;100.00;102559.59;1907724;75;26605;-80
2021/03/23 06:34:35;;;;;;;26.77;18.30;;;;;;;4.18;100.00;102553.75;1865205;76;26190;-81
2021/03/23 06:37:22;;;;;;;26.40;18.37;;;;;;;4.23;100.00;102565.86;1865268;77;26272;-80
2021/03/23 06:39:51;;;;;;;29.27;18.60;;;;;;;4.63;100.00;102563.31;1907577;75;26645;-83
2021/03/23 06:42:38;;;;;;;24.73;17.40;;;;;;;4.67;100.00;102568.20;1907638;75;26205;-80
2021/03/23 06:45:23;;;;;;;22.80;15.93;;;;;;;4.88;100.00;102563.10;1865357;77;26293;-79
2021/03/23 06:47:53;;;;;;;27.73;18.20;;;;;;;4.64;100.00;102568.63;1907479;75;26177;-80
2021/03/23 06:50:37;;;;;;;19.13;14.90;;;;;;;4.90;100.00;102570.13;1907701;75;26260;-80
2021/03/23 06:53:10;;;;;;;25.63;17.30;;;;;;;4.92;100.00;102571.30;1907480;75;26186;-80
2021/03/23 06:55:42;;;;;;;27.93;18.50;;;;;;;4.94;100.00;102570.03;1865329;77;26191;-80
2021/03/23 06:58:28;;;;;;;29.27;18.13;;;;;;;5.02;100.00;102568.98;1865212;77;26307;-81
2021/03/23 07:01:17;;;;;;;31.70;20.13;;;;;;;5.26;100.00;102568.97;1907553;75;26217;-80
2021/03/23 07:03:49;;;;;;;29.17;19.27;;;;;;;5.21;100.00;102575.11;1865232;77;26292;-81
2021/03/23 07:06:31;;;;;;;29.93;19.17;;;;;;;5.39;100.00;102569.00;1865372;77;26250;-80
2021/03/23 07:09:11;;;;;;;30.43;19.03;;;;;;;5.38;100.00;102570.05;1907499;75;26251;-81
2021/03/23 07:12:01;;;;;;;29.10;17.83;;;;;;;5.29;100.00;102571.30;1908771;72;26311;-78
2021/03/23 07:14:35;;;;;;;30.27;18.47;;;;;;;5.35;100.00;102574.06;1870752;77;26296;-79
2021/03/23 07:17:25;;;;;;;29.67;18.40;;;;;;;5.71;100.00;102581.12;1913235;75;26263;-79
2021/03/23 07:20:07;;;;;;;28.30;18.53;;;;;;;5.71;100.00;102578.36;1913416;75;26252;-80
2021/03/23 07:22:48;;;;;;;28.00;18.33;;;;;;;5.83;100.00;102580.80;1870842;77;26264;-80
2021/03/23 07:25:38;;;;;;;26.00;17.77;;;;;;;5.82;100.00;102574.96;1913183;75;26738;-80
2021/03/23 07:28:42;;;;;;;26.70;18.70;;;;;;;5.89;100.00;102580.85;1871222;77;26314;-79
2021/03/23 07:31:15;;;;;;;28.60;18.40;;;;;;;5.92;100.00;102572.14;1870603;75;26260;-79
2021/03/23 07:33:57;;;;;;;27.50;18.27;;;;;;;5.88;100.00;102581.05;1913290;75;26183;-80
2021/03/23 07:36:30;;;;;;;28.47;17.67;;;;;;;6.04;100.00;102582.00;1913204;74;26675;-79
2021/03/23 07:39:03;;;;;;;27.40;17.40;;;;;;;6.11;100.00;102587.00;1870703;77;26262;-80
2021/03/23 07:41:36;;;;;;;25.97;17.63;;;;;;;6.27;100.00;102589.84;1913302;75;26198;-80
2021/03/23 07:44:10;;;;;;;24.93;16.60;;;;;;;6.47;100.00;102584.27;1870764;77;26691;-80
2021/03/23 07:46:43;;;;;;;24.27;16.13;;;;;;;6.54;100.00;102584.59;1913384;73;26183;-79
2021/03/23 07:49:23;;;;;;;22.73;15.60;;;;;;;6.66;100.00;102585.62;1870792;76;26223;-80
2021/03/23 07:51:56;;;;;;;22.30;15.57;;;;;;;6.81;100.00;102589.48;1912925;74;26198;-79
2021/03/23 07:54:39;;;;;;;25.93;15.73;;;;;;;6.90;100.00;102586.80;1870808;77;26211;-80
2021/03/23 07:57:37;;;;;;;25.43;15.07;;;;;;;6.97;100.00;102582.11;1913157;75;26232;-80
2021/03/23 08:00:28;;;;;;;23.43;14.33;;;;;;;7.00;100.00;102588.57;1870923;75;26338;-80
2021/03/23 08:03:34;;;;;;;22.10;14.63;;;;;;;7.06;100.00;102583.53;1870677;75;26249;-83
2021/03/23 08:06:09;;;;;;;21.37;13.77;;;;;;;7.20;100.00;102577.41;1867264;77;26244;-77
2021/03/23 08:08:47;;;;;;;22.57;14.90;;;;;;;7.25;100.00;102581.22;1866682;77;26781;-78
2021/03/23 08:11:28;;;;;;;23.50;14.13;;;;;;;7.33;100.00;102574.58;1866798;75;26268;-79
2021/03/23 08:14:16;;;;;;;16.97;13.57;;;;;;;7.48;100.00;102584.81;1866899;75;26187;-79
2021/03/23 08:16:54;;;;;;;23.20;14.73;;;;;;;7.46;100.00;102580.02;1866979;76;26621;-78
2021/03/23 08:19:51;;;;;;;19.57;13.13;;;;;;;7.59;100.00;102570.26;1865886;76;26335;-79
2021/03/23 08:22:38;;;;;;;20.73;13.40;;;;;;;7.80;100.00;102573.19;1866579;76;26167;-79
2021/03/23 08:25:13;;;;;;;20.17;13.47;;;;;;;7.82;100.00;102571.05;1866613;76;26231;-79
2021/03/23 08:28:24;;;;;;;18.83;13.70;;;;;;;7.96;100.00;102562.11;1867204;77;26664;-78
2021/03/23 08:31:13;;;;;;;22.50;14.70;;;;;;;8.00;100.00;102564.17;1849121;75;26696;-79
2021/03/23 08:33:52;;;;;;;20.70;14.70;;;;;;;8.10;100.00;102560.90;1867380;77;26166;-79
2021/03/23 08:36:32;;;;;;;20.03;13.40;;;;;;;8.18;100.00;102558.69;1867334;77;26171;-79
2021/03/23 08:39:09;;;;;;;21.07;14.33;;;;;;;8.22;100.00;102558.54;1866674;75;26614;-79
2021/03/23 08:41:44;;;;;;;19.90;14.03;;;;;;;8.37;100.00;102558.76;1912841;75;26233;-79
2021/03/23 08:44:23;;;;;;;18.07;13.33;;;;;;;8.49;100.00;102554.14;1870914;75;26223;-78
2021/03/23 08:46:53;;;;;;;20.07;13.67;;;;;;;8.43;100.00;102555.90;1913411;75;26194;-78
2021/03/23 08:49:24;;;;;;;21.67;14.27;;;;;;;8.55;100.00;102555.48;1870701;77;26305;-77
2021/03/23 08:51:54;;;;;;;25.90;15.30;;;;;;;8.64;100.00;102555.45;1913114;75;26649;-78
2021/03/23 08:54:51;;;;;;;21.87;14.43;;;;;;;8.72;100.00;102551.55;1870772;77;26195;-78
2021/03/23 08:57:21;;;;;;;19.53;13.90;;;;;;;8.72;100.00;102555.70;1904617;75;26186;-78
2021/03/23 08:59:53;;;;;;;18.17;13.43;;;;;;;8.84;100.00;102552.45;1870658;77;26807;-78
2021/03/23 09:02:51;;;;;;;20.33;14.33;;;;;;;8.98;100.00;102558.69;1870669;77;26251;-78
2021/03/23 09:06:02;;;;;;;19.57;14.10;;;;;;;8.99;100.00;102554.81;1913193;75;26177;-78
2021/03/23 09:08:39;;;;;;;20.10;14.70;;;;;;;9.10;100.00;102560.44;1870863;77;26178;-78
2021/03/23 09:11:13;;;;;;;22.80;14.30;;;;;;;9.21;100.00;102559.31;1870953;77;26187;-78
2021/03/23 09:14:23;;;;;;;19.33;14.10;;;;;;;9.25;100.00;102564.16;1913447;72;26245;-78
2021/03/23 09:17:23;;;;;;;24.23;14.73;;;;;;;9.31;100.00;102564.63;1870763;77;26194;-78
2021/03/23 09:19:57;;;;;;;18.27;13.90;;;;;;;9.35;100.00;102560.30;1912843;74;26628;-78
2021/03/23 09:22:34;;;;;;;16.13;13.47;;;;;;;9.48;100.00;102560.10;1870692;77;26674;-78
2021/03/23 09:25:35;;;;;;;19.43;13.80;;;;;;;9.54;100.00;102560.52;1913215;75;26194;-78
2021/03/23 09:28:07;;;;;;;16.50;13.47;;;;;;;9.47;100.00;102549.23;1870802;76;26691;-78
2021/03/23 09:30:54;;;;;;;17.37;13.00;;;;;;;9.59;100.00;102554.27;1913064;75;26640;-78
2021/03/23 09:33:34;;;;;;;17.90;13.27;;;;;;;9.73;100.00;102552.13;1870713;77;26686;-78
2021/03/23 09:36:48;;;;;;;18.03;12.70;;;;;;;9.82;100.00;102552.94;1870736;77;26198;-78
2021/03/23 09:39:36;;;;;;;17.80;12.13;;;;;;;9.90;100.00;102548.96;1913292;75;26634;-78
2021/03/23 09:42:36;;;;;;;15.13;11.57;;;;;;;10.09;100.00;102545.55;1870749;77;26633;-78
2021/03/23 09:45:33;;;;;;;16.17;10.80;;;;;;;10.12;100.00;102554.24;1852398;75;26191;-78
2021/03/23 09:48:32;;;;;;;13.37;11.13;;;;;;;10.18;100.00;102544.14;1913196;75;26181;-78
2021/03/23 09:51:07;;;;;;;17.83;11.37;;;;;;;10.27;100.00;102541.31;1870880;75;26674;-78
2021/03/23 09:53:41;;;;;;;13.30;10.73;;;;;;;10.38;100.00;102537.12;1870803;77;26190;-78
2021/03/23 09:56:15;;;;;;;16.93;11.23;;;;;;;10.43;100.00;102535.86;1913574;75;26174;-78
2021/03/23 09:58:45;;;;;;;13.73;10.17;;;;;;;10.60;100.00;102530.39;1870840;77;26268;-77
2021/03/23 10:01:21;;;;;;;15.87;10.87;;;;;;;10.59;100.00;102532.86;1870924;77;26280;-78
2021/03/23 10:03:56;;;;;;;11.77;9.87;;;;;;;10.66;100.00;102526.62;1913153;75;26297;-78
2021/03/23 10:06:28;;;;;;;14.47;10.00;;;;;;;10.70;100.00;102529.75;1871289;76;26258;-78
2021/03/23 10:09:02;;;;;;;14.40;9.93;;;;;;;10.67;100.00;102526.92;1870739;77;26272;-78
2021/03/23 10:11:38;;;;;;;9.63;7.77;;;;;;;10.71;100.00;102526.73;1870717;77;26704;-78
2021/03/23 10:14:11;;;;;;;9.00;6.97;;;;;;;10.79;100.00;102522.72;1874217;74;26241;-78
2021/03/23 10:16:44;;;;;;;8.90;6.27;;;;;;;10.90;100.00;102514.36;1870814;77;26201;-78
2021/03/23 10:19:21;;;;;;;7.60;5.73;;;;;;;10.86;100.00;102510.94;1870784;76;26633;-78
2021/03/23 10:21:54;;;;;;;6.30;5.57;;;;;;;10.90;100.00;102509.34;1870817;77;26205;-78
2021/03/23 10:24:27;;;;;;;9.50;6.03;;;;;;;11.14;100.00;102512.86;1838529;78;26706;-78
2021/03/23 10:26:57;;;;;;;6.40;5.40;;;;;;;11.10;100.00;102510.28;1870911;76;26275;-78
2021/03/23 10:29:34;;;;;;;7.90;6.40;;;;;;;11.12;100.00;102505.34;1870905;77;26673;-78
2021/03/23 10:32:20;;;;;;;7.97;6.10;;;;;;;11.16;100.00;102510.16;1870974;76;26256;-78
2021/03/23 10:35:17;;;;;;;8.90;6.47;;;;;;;11.14;100.00;102501.20;1870790;77;26572;-78
2021/03/23 10:37:48;;;;;;;7.73;5.97;;;;;;;11.16;100.00;102502.35;1912084;75;26622;-78
2021/03/23 10:40:38;;;;;;;6.37;5.50;;;;;;;11.22;100.00;102495.77;1870793;77;26312;-78
2021/03/23 10:43:12;;;;;;;6.63;5.67;;;;;;;11.29;100.00;102499.27;1870878;76;26194;-78
2021/03/23 10:45:44;;;;;;;8.13;6.40;;;;;;;11.35;100.00;102494.92;1870846;77;26201;-78
2021/03/23 10:48:19;;;;;;;7.77;5.50;;;;;;;11.37;100.00;102488.57;1913164;75;26674;-78
2021/03/23 10:51:07;;;;;;;7.03;5.67;;;;;;;11.42;100.00;102490.03;1870866;77;26784;-78
2021/03/23 10:53:37;;;;;;;9.57;5.87;;;;;;;11.46;100.00;102490.40;1870862;76;26284;-78
2021/03/23 10:56:23;;;;;;;6.20;5.20;;;;;;;11.48;100.00;102495.69;1870819;77;26193;-78
2021/03/23 10:59:11;;;;;;;7.37;5.60;;;;;;;11.42;100.00;102481.69;1913331;75;26711;-78
2021/03/23 11:02:06;;;;;;;6.60;5.77;;;;;;;11.48;100.00;102489.58;1870622;77;26299;-78
2021/03/23 11:04:38;;;;;;;8.57;5.47;;;;;;;11.55;100.00;102483.87;1870905;76;26174;-78
2021/03/23 11:07:23;;;;;;;6.43;5.70;;;;;;;11.55;100.00;102477.73;1870690;77;26696;-78
2021/03/23 11:09:54;;;;;;;7.40;5.50;;;;;;;11.57;100.00;102483.90;1837991;78;26258;-78
2021/03/23 11:12:25;;;;;;;8.53;6.00;;;;;;;11.53;100.00;102479.94;1913263;75;26194;-78
2021/03/23 11:14:55;;;;;;;8.50;6.03;;;;;;;11.56;100.00;102473.01;1870677;73;26711;-78
2021/03/23 11:17:27;;;;;;;7.07;5.77;;;;;;;11.61;100.00;102466.98;1913365;75;26186;-78
2021/03/23 11:20:01;;;;;;;8.63;6.03;;;;;;;11.66;100.00;102474.04;1870692;76;26370;-78
2021/03/23 11:22:34;;;;;;;7.33;5.47;;;;;;;11.70;100.00;102466.02;1837300;78;26349;-78
2021/03/23 11:25:07;;;;;;;8.60;5.80;;;;;;;11.70;100.00;102472.44;1838132;78;26318;-78
2021/03/23 11:27:37;;;;;;;6.57;5.47;;;;;;;11.69;100.00;102456.82;1870877;76;26272;-78
2021/03/23 11:30:09;;;;;;;7.23;5.87;;;;;;;11.82;100.00;102464.02;1870806;77;26644;-78
2021/03/23 11:32:39;;;;;;;7.00;5.80;;;;;;;11.84;100.00;102454.88;1913247;75;26252;-78
2021/03/23 11:35:13;;;;;;;6.83;5.27;;;;;;;12.13;100.00;102452.80;1870718;77;26205;-78
2021/03/23 11:37:42;;;;;;;7.33;5.17;;;;;;;12.53;100.00;102466.45;1913260;75;26648;-78
2021/03/23 11:40:14;;;;;;;8.17;5.83;;;;;;;12.15;100.00;102463.14;1870644;77;26336;-78
2021/03/23 11:42:46;;;;;;;7.73;5.57;;;;;;;12.18;100.00;102459.84;1837961;78;26217;-78
2021/03/23 11:45:21;;;;;;;6.17;5.30;;;;;;;12.06;100.00;102459.95;1837979;78;26208;-78
2021/03/23 11:47:57;;;;;;;6.87;5.13;;;;;;;11.93;100.00;102456.68;1837962;78;26240;-76
2021/03/23 11:50:29;;;;;;;7.40;5.53;;;;;;;11.81;100.00;102452.58;1913291;75;26618;-77